createdAt,value
2023-01-04T00:02:12.030Z,10.95
2023-01-04T00:04:57.170Z,10.13
2023-01-04T00:07:42.238Z,9.80
2023-01-04T00:10:27.701Z,7.10
2023-01-04T00:13:13.059Z,6.15
2023-01-04T00:16:05.617Z,4.75
2023-01-04T00:18:54.270Z,8.18
2023-01-04T00:21:39.302Z,3.80
2023-01-04T00:24:24.536Z,5.22
2023-01-04T00:27:09.849Z,6.28
2023-01-04T00:29:54.847Z,8.60
2023-01-04T00:32:40.129Z,6.10
2023-01-04T00:35:44.731Z,7.80
2023-01-04T00:38:30.783Z,10.73
2023-01-04T00:41:41.952Z,14.02
2023-01-04T00:44:23.994Z,20.17
2023-01-04T00:47:09.009Z,18.73
2023-01-04T00:49:54.083Z,20.85
2023-01-04T00:52:38.991Z,18.77
2023-01-04T00:55:24.134Z,22.25
2023-01-04T00:58:09.226Z,24.73
2023-01-04T01:00:54.468Z,18.17
2023-01-04T01:03:39.897Z,24.05
2023-01-04T01:06:26.186Z,28.95
2023-01-04T01:09:11.707Z,22.63
2023-01-04T01:11:56.782Z,21.60
2023-01-04T01:14:41.836Z,23.85
2023-01-04T01:17:26.935Z,22.40
2023-01-04T01:20:11.877Z,17.48
2023-01-04T01:22:57.098Z,19.33
2023-01-04T01:25:42.599Z,20.65
2023-01-04T01:28:29.102Z,18.58
2023-01-04T01:31:17.157Z,21.38
2023-01-04T01:34:02.805Z,15.70
2023-01-04T01:36:47.939Z,22.70
2023-01-04T01:39:33.199Z,22.58
2023-01-04T01:42:20.561Z,25.27
2023-01-04T01:45:24.671Z,18.02
2023-01-04T01:48:17.457Z,25.58
2023-01-04T01:51:04.499Z,27.65
2023-01-04T01:53:58.837Z,24.45
2023-01-04T01:56:45.746Z,26.00
2023-01-04T01:59:34.226Z,28.90
2023-01-04T02:02:19.415Z,22.70
2023-01-04T02:05:04.986Z,20.73
2023-01-04T02:07:50.700Z,26.35
2023-01-04T02:10:36.184Z,25.15
2023-01-04T02:13:50.797Z,25.92
2023-01-04T02:17:14.465Z,21.77
2023-01-04T02:20:24.193Z,25.52
2023-01-04T02:23:33.741Z,23.23
2023-01-04T02:26:36.908Z,22.70
2023-01-04T02:29:30.944Z,31.42
2023-01-04T02:32:51.338Z,27.05
2023-01-04T02:36:19.225Z,19.17
2023-01-04T02:39:28.073Z,19.30
2023-01-04T02:42:48.111Z,30.33
2023-01-04T02:45:39.415Z,29.23
2023-01-04T02:48:43.167Z,30.83
2023-01-04T02:51:34.405Z,29.23
2023-01-04T02:54:30.841Z,30.58
2023-01-04T02:57:26.006Z,32.00
2023-01-04T03:00:29.727Z,26.75
2023-01-04T03:03:46.411Z,34.13
2023-01-04T03:06:45.355Z,30.90
2023-01-04T03:09:35.528Z,28.75
2023-01-04T03:12:32.567Z,32.22
2023-01-04T03:15:25.017Z,27.85
2023-01-04T03:18:09.915Z,30.73
2023-01-04T03:20:58.259Z,19.50
2023-01-04T03:24:06.884Z,25.23
2023-01-04T03:27:19.577Z,17.13
2023-01-04T03:30:28.493Z,14.07
2023-01-04T03:33:34.481Z,18.83
2023-01-04T03:36:32.671Z,14.80
2023-01-04T03:40:02.034Z,18.42
2023-01-04T03:43:19.844Z,19.75
2023-01-04T03:46:29.856Z,18.23
2023-01-04T03:49:29.015Z,12.30
2023-01-04T03:52:15.924Z,9.63
2023-01-04T03:55:03.493Z,9.82
2023-01-04T03:57:49.201Z,12.77
2023-01-04T04:00:34.873Z,11.90
2023-01-04T04:03:20.084Z,11.65
2023-01-04T04:06:23.731Z,13.00
2023-01-04T04:09:08.946Z,12.05
2023-01-04T04:11:54.097Z,12.38
2023-01-04T04:14:39.218Z,17.77
2023-01-04T04:17:24.179Z,14.40
2023-01-04T04:20:10.047Z,15.93
2023-01-04T04:22:55.009Z,15.98
2023-01-04T04:25:40.385Z,8.93
2023-01-04T04:28:25.545Z,16.88
2023-01-04T04:31:10.933Z,11.95
2023-01-04T04:33:56.071Z,13.45
2023-01-04T04:36:41.151Z,13.68
2023-01-04T04:39:26.116Z,13.80
2023-01-04T04:42:10.935Z,16.90
2023-01-04T04:44:56.120Z,12.80
2023-01-04T04:47:41.101Z,17.17
2023-01-04T04:50:26.072Z,23.08
2023-01-04T04:53:11.275Z,13.23
2023-01-04T04:55:56.326Z,22.25
2023-01-04T04:58:41.581Z,30.23
2023-01-04T05:01:26.930Z,22.63
2023-01-04T05:04:16.677Z,25.55
2023-01-04T05:07:03.353Z,27.83
2023-01-04T05:09:50.053Z,30.10
2023-01-04T05:12:57.787Z,41.25
2023-01-04T05:15:46.820Z,34.90
2023-01-04T05:18:32.487Z,23.53
2023-01-04T05:21:20.313Z,32.92
2023-01-04T05:24:05.671Z,40.75
2023-01-04T05:26:57.545Z,35.07
2023-01-04T05:30:01.277Z,32.00
2023-01-04T05:32:46.432Z,24.20
2023-01-04T05:35:31.886Z,29.13
2023-01-04T05:38:17.248Z,26.17
2023-01-04T05:41:02.354Z,25.80
2023-01-04T05:43:47.667Z,27.63
2023-01-04T05:46:32.611Z,31.48
2023-01-04T05:49:17.942Z,32.30
2023-01-04T05:52:02.977Z,28.05
2023-01-04T05:54:48.341Z,37.47
2023-01-04T05:57:33.564Z,26.30
2023-01-04T06:00:19.044Z,30.08
2023-01-04T06:03:04.174Z,34.28
2023-01-04T06:05:50.812Z,27.70
2023-01-04T06:08:35.758Z,30.83
2023-01-04T06:11:27.274Z,23.00
2023-01-04T06:14:12.958Z,27.52
2023-01-04T06:16:58.660Z,23.02
2023-01-04T06:19:44.105Z,22.38
2023-01-04T06:22:29.725Z,26.27
2023-01-04T06:25:14.772Z,21.05
2023-01-04T06:27:59.881Z,18.67
2023-01-04T06:30:44.795Z,24.13
2023-01-04T06:33:30.227Z,13.85
2023-01-04T06:36:20.095Z,21.48
2023-01-04T06:39:06.161Z,18.40
2023-01-04T06:41:51.390Z,14.02
2023-01-04T06:44:36.218Z,20.95
2023-01-04T06:47:21.303Z,21.48
2023-01-04T06:50:07.002Z,19.45
2023-01-04T06:52:51.844Z,14.10
2023-01-04T06:55:36.808Z,21.23
2023-01-04T06:58:21.963Z,14.95
2023-01-04T07:01:07.863Z,14.90
2023-01-04T07:03:53.271Z,13.88
2023-01-04T07:06:38.320Z,12.27
2023-01-04T07:09:23.388Z,15.70
2023-01-04T07:12:08.711Z,15.93
2023-01-04T07:14:53.854Z,11.98
2023-01-04T07:17:38.987Z,15.70
2023-01-04T07:20:24.356Z,15.52
2023-01-04T07:23:09.643Z,11.07
2023-01-04T07:25:54.844Z,11.98
2023-01-04T07:28:58.587Z,10.20
2023-01-04T07:31:48.888Z,9.18
2023-01-04T07:34:33.997Z,9.02
2023-01-04T07:37:19.087Z,8.52
2023-01-04T07:40:05.112Z,7.43
2023-01-04T07:42:58.868Z,9.25
2023-01-04T07:45:44.317Z,11.38
2023-01-04T07:48:29.494Z,6.07
2023-01-04T07:51:14.634Z,6.72
2023-01-04T07:54:00.242Z,8.50
2023-01-04T07:56:46.284Z,5.03
2023-01-04T07:59:31.395Z,5.10
2023-01-04T08:02:16.671Z,6.20
2023-01-04T08:05:02.012Z,4.07
2023-01-04T08:07:47.178Z,5.43
2023-01-04T08:10:32.333Z,4.18
2023-01-04T08:13:17.589Z,6.53
2023-01-04T08:16:03.856Z,2.25
2023-01-04T08:18:53.850Z,4.97
2023-01-04T08:21:39.202Z,6.18
2023-01-04T08:24:24.590Z,3.83
2023-01-04T08:27:11.210Z,2.83
2023-01-04T08:29:56.400Z,3.15
2023-01-04T08:32:41.627Z,1.95
2023-01-04T08:35:26.892Z,2.08
2023-01-04T08:38:47.214Z,5.10
2023-01-04T08:41:55.519Z,4.70
2023-01-04T08:44:25.212Z,9.13
2023-01-04T08:47:10.349Z,7.88
2023-01-04T08:49:55.704Z,8.05
2023-01-04T08:52:41.621Z,8.48
2023-01-04T08:55:27.071Z,8.18
2023-01-04T08:58:12.146Z,12.57
2023-01-04T09:01:15.267Z,12.60
2023-01-04T09:04:01.424Z,12.23
2023-01-04T09:06:46.808Z,12.10
2023-01-04T09:09:32.035Z,14.57
2023-01-04T09:12:17.234Z,13.65
2023-01-04T09:15:02.487Z,10.40
2023-01-04T09:18:20.573Z,13.10
2023-01-04T09:20:54.769Z,13.25
2023-01-04T09:23:40.928Z,18.08
2023-01-04T09:26:26.234Z,19.95
2023-01-04T09:29:11.495Z,12.70
2023-01-04T09:31:56.610Z,21.42
2023-01-04T09:34:41.565Z,14.07
2023-01-04T09:37:26.584Z,15.88
2023-01-04T09:40:20.886Z,16.10
2023-01-04T09:43:20.377Z,13.95
2023-01-04T09:46:14.895Z,13.48
2023-01-04T09:49:14.508Z,16.00
2023-01-04T09:52:25.867Z,18.20
2023-01-04T09:55:37.626Z,13.95
2023-01-04T09:58:38.140Z,17.88
2023-01-04T10:01:42.081Z,16.70
2023-01-04T10:04:43.017Z,13.15
2023-01-04T10:07:31.529Z,14.05
2023-01-04T10:10:21.202Z,12.85
2023-01-04T10:13:19.219Z,15.23
2023-01-04T10:16:30.191Z,10.60
2023-01-04T10:22:40.506Z,18.30
2023-01-04T10:25:31.530Z,13.68
2023-01-04T10:28:28.594Z,14.88
2023-01-04T10:31:40.149Z,16.30
2023-01-04T10:34:30.379Z,16.05
2023-01-04T10:37:25.431Z,10.38
2023-01-04T10:40:14.939Z,8.10
2023-01-04T10:43:05.064Z,12.82
2023-01-04T10:46:02.389Z,17.35
2023-01-04T10:48:51.966Z,12.13
2023-01-04T10:51:47.526Z,11.75
2023-01-04T10:54:35.686Z,12.68
2023-01-04T10:57:33.867Z,12.48
2023-01-04T11:00:30.416Z,13.77
2023-01-04T11:03:25.940Z,11.43
2023-01-04T11:06:11.131Z,16.40
2023-01-04T11:09:03.827Z,14.68
2023-01-04T11:11:51.022Z,14.38
2023-01-04T11:14:37.695Z,15.68
2023-01-04T11:17:24.963Z,14.10
2023-01-04T11:20:10.555Z,17.92
2023-01-04T11:23:02.208Z,15.63
2023-01-04T11:25:57.144Z,20.75
2023-01-04T11:29:12.689Z,17.77
2023-01-04T11:32:02.884Z,13.73
2023-01-04T11:34:47.942Z,22.13
2023-01-04T11:37:38.697Z,15.55
2023-01-04T11:40:24.918Z,17.10
2023-01-04T11:43:11.480Z,26.55
2023-01-04T11:46:05.636Z,27.42
2023-01-04T11:48:52.372Z,19.55
2023-01-04T11:51:39.623Z,21.25
2023-01-04T11:54:24.455Z,23.52
2023-01-04T11:57:19.069Z,26.10
2023-01-04T12:00:13.597Z,25.52
2023-01-04T12:03:15.109Z,32.28
2023-01-04T12:06:00.385Z,25.73
2023-01-04T12:08:46.207Z,31.08
2023-01-04T12:11:36.735Z,26.20
2023-01-04T12:14:32.557Z,32.30
2023-01-04T12:17:43.136Z,22.02
2023-01-04T12:20:29.566Z,28.00
2023-01-04T12:23:14.735Z,30.60
2023-01-04T12:26:00.866Z,31.67
2023-01-04T12:28:48.547Z,29.48
2023-01-04T12:31:33.839Z,23.95
2023-01-04T12:34:22.168Z,26.70
2023-01-04T12:37:08.617Z,25.92
2023-01-04T12:39:53.886Z,27.05
2023-01-04T12:42:58.980Z,23.27
2023-01-04T12:46:10.959Z,33.58
2023-01-04T12:49:05.171Z,28.25
2023-01-04T12:52:12.806Z,29.27
2023-01-04T12:55:03.918Z,24.75
2023-01-04T12:57:48.697Z,25.85
2023-01-04T13:00:52.317Z,34.88
2023-01-04T13:03:48.346Z,23.85
2023-01-04T13:06:45.564Z,25.70
2023-01-04T13:09:33.126Z,26.27
2023-01-04T13:12:50.593Z,24.48
2023-01-04T13:15:51.952Z,28.83
2023-01-04T13:18:59.472Z,28.25
2023-01-04T13:21:46.853Z,32.15
2023-01-04T13:24:37.669Z,26.00
2023-01-04T13:27:24.265Z,30.45
2023-01-04T13:30:29.690Z,36.53
2023-01-04T13:33:27.158Z,29.54
2023-01-04T13:36:13.258Z,32.72
2023-01-04T13:38:59.074Z,31.70
2023-01-04T13:41:44.632Z,29.90
2023-01-04T13:45:17.752Z,25.15
2023-01-04T13:47:58.401Z,27.50
2023-01-04T13:50:59.817Z,32.05
2023-01-04T13:53:55.818Z,29.02
2023-01-04T13:56:40.797Z,30.35
2023-01-04T13:59:26.062Z,26.67
2023-01-04T14:02:22.093Z,29.92
2023-01-04T14:05:16.646Z,34.47
2023-01-04T14:08:02.627Z,27.55
2023-01-04T14:10:47.783Z,28.65
2023-01-04T14:13:32.980Z,29.48
2023-01-04T14:16:18.183Z,31.00
2023-01-04T14:19:31.678Z,36.40
2023-01-04T14:22:28.304Z,32.22
2023-01-04T14:25:38.085Z,33.63
2023-01-04T14:28:24.964Z,35.70
2023-01-04T14:31:10.189Z,41.65
2023-01-04T14:33:55.707Z,39.00
2023-01-04T14:36:43.004Z,33.83
2023-01-04T14:39:32.990Z,29.65
2023-01-04T14:42:31.013Z,38.67
2023-01-04T14:45:16.409Z,36.38
2023-01-04T14:48:01.672Z,33.40
2023-01-04T14:50:46.592Z,30.38
2023-01-04T14:53:32.080Z,40.22
2023-01-04T14:56:18.802Z,34.00
2023-01-04T14:59:03.811Z,29.42
2023-01-04T15:01:50.308Z,31.52
2023-01-04T15:04:35.383Z,26.63
2023-01-04T15:07:40.308Z,35.38
2023-01-04T15:10:27.581Z,33.50
2023-01-04T15:13:12.531Z,34.40
2023-01-04T15:15:58.675Z,32.53
2023-01-04T15:18:45.627Z,29.83
2023-01-04T15:21:32.937Z,23.63
2023-01-04T15:24:22.191Z,32.95
2023-01-04T15:27:07.532Z,26.35
2023-01-04T15:29:52.672Z,31.15
2023-01-04T15:32:38.289Z,25.13
2023-01-04T15:35:23.870Z,30.83
2023-01-04T15:38:14.344Z,35.55
2023-01-04T15:41:06.112Z,27.17
2023-01-04T15:43:51.082Z,32.58
2023-01-04T15:46:36.349Z,33.53
2023-01-04T15:49:21.774Z,35.85
2023-01-04T15:52:06.888Z,44.97
2023-01-04T15:54:51.999Z,33.55
2023-01-04T15:57:41.765Z,34.38
2023-01-04T16:00:28.886Z,34.55
2023-01-04T16:03:14.091Z,35.60
2023-01-04T16:06:04.506Z,34.80
2023-01-04T16:08:51.937Z,41.95
2023-01-04T16:11:57.391Z,34.67
2023-01-04T16:14:42.412Z,31.55
2023-01-04T16:17:27.409Z,32.53
2023-01-04T16:20:15.766Z,29.50
2023-01-04T16:23:01.172Z,30.13
2023-01-04T16:25:46.352Z,36.63
2023-01-04T16:28:31.650Z,41.13
2023-01-04T16:31:16.883Z,45.10
2023-01-04T16:34:02.560Z,33.75
2023-01-04T16:36:49.692Z,39.43
2023-01-04T16:40:05.194Z,38.67
2023-01-04T16:42:40.471Z,30.70
2023-01-04T16:45:25.350Z,36.60
2023-01-04T16:48:16.578Z,43.25
2023-01-04T16:51:03.772Z,39.60
2023-01-04T16:53:49.358Z,46.95
2023-01-04T16:56:35.249Z,40.80
2023-01-04T16:59:20.797Z,39.15
2023-01-04T17:02:06.079Z,40.33
2023-01-04T17:04:55.504Z,39.58
2023-01-04T17:07:40.785Z,37.00
2023-01-04T17:10:29.523Z,40.53
2023-01-04T17:13:14.866Z,44.03
2023-01-04T17:16:00.914Z,40.42
2023-01-04T17:18:46.179Z,34.83
2023-01-04T17:21:34.240Z,33.03
2023-01-04T17:24:20.622Z,43.40
2023-01-04T17:27:06.116Z,42.63
2023-01-04T17:29:51.301Z,38.40
2023-01-04T17:32:36.666Z,42.03
2023-01-04T17:35:21.498Z,46.53
2023-01-04T17:38:07.427Z,42.35
2023-01-04T17:40:52.386Z,46.38
2023-01-04T17:43:38.425Z,36.83
2023-01-04T17:46:25.140Z,34.88
2023-01-04T17:49:31.310Z,50.35
2023-01-04T17:52:24.419Z,46.45
2023-01-04T17:55:14.353Z,44.83
2023-01-04T17:57:59.190Z,29.55
2023-01-04T18:00:44.230Z,50.72
2023-01-04T18:03:29.248Z,36.75
2023-01-04T18:06:25.519Z,41.35
2023-01-04T18:09:11.069Z,36.88
2023-01-04T18:11:56.439Z,38.72
2023-01-04T18:14:41.351Z,37.58
2023-01-04T18:17:26.469Z,39.30
2023-01-04T18:20:15.483Z,43.53
2023-01-04T18:23:01.016Z,40.08
2023-01-04T18:25:46.219Z,38.90
2023-01-04T18:28:31.647Z,40.22
2023-01-04T18:31:19.631Z,41.38
2023-01-04T18:34:04.684Z,33.40
2023-01-04T18:36:49.910Z,39.90
2023-01-04T18:39:35.291Z,34.38
2023-01-04T18:42:20.202Z,37.80
2023-01-04T18:45:05.905Z,39.50
2023-01-04T18:47:52.143Z,36.42
2023-01-04T18:50:37.139Z,36.78
2023-01-04T18:53:22.548Z,35.45
2023-01-04T18:56:08.011Z,44.13
2023-01-04T18:58:52.922Z,37.17
2023-01-04T19:01:38.229Z,34.28
2023-01-04T19:04:23.462Z,37.28
2023-01-04T19:07:08.658Z,41.47
2023-01-04T19:09:54.037Z,37.67
2023-01-04T19:12:39.116Z,30.67
2023-01-04T19:15:24.375Z,40.17
2023-01-04T19:18:10.734Z,41.50
2023-01-04T19:21:00.529Z,34.72
2023-01-04T19:23:46.866Z,40.63
2023-01-04T19:26:31.861Z,32.53
2023-01-04T19:29:17.193Z,28.92
2023-01-04T19:32:02.842Z,31.67
2023-01-04T19:34:47.995Z,33.70
2023-01-04T19:37:33.152Z,37.55
2023-01-04T19:40:18.503Z,32.42
2023-01-04T19:43:04.865Z,35.97
2023-01-04T19:45:50.263Z,33.17
2023-01-04T19:48:35.795Z,31.98
2023-01-04T19:51:21.132Z,33.13
2023-01-04T19:54:06.289Z,25.77
2023-01-04T19:56:51.605Z,28.38
2023-01-04T19:59:36.577Z,35.60
2023-01-04T20:02:22.104Z,30.13
2023-01-04T20:05:07.172Z,32.80
2023-01-04T20:07:52.468Z,30.90
2023-01-04T20:10:37.770Z,30.52
2023-01-04T20:13:22.825Z,33.95
2023-01-04T20:16:08.804Z,30.48
2023-01-04T20:18:58.138Z,27.27
2023-01-04T20:21:43.261Z,28.42
2023-01-04T20:24:28.680Z,30.60
2023-01-04T20:27:13.809Z,24.88
2023-01-04T20:29:58.591Z,28.10
2023-01-04T20:32:44.121Z,24.90
2023-01-04T20:35:29.389Z,43.22
2023-01-04T20:38:14.768Z,31.50
2023-01-04T20:41:01.469Z,27.52
2023-01-04T20:43:47.806Z,36.22
2023-01-04T20:46:33.154Z,27.98
2023-01-04T20:49:18.340Z,30.15
2023-01-04T20:52:03.634Z,26.63
2023-01-04T20:54:50.216Z,34.83
2023-01-04T20:57:35.196Z,28.45
2023-01-04T21:00:20.359Z,32.70
2023-01-04T21:03:07.904Z,25.38
2023-01-04T21:05:53.586Z,27.27
2023-01-04T21:08:40.318Z,21.83
2023-01-04T21:11:25.572Z,17.75
2023-01-04T21:14:12.030Z,25.83
2023-01-04T21:16:57.347Z,20.85
2023-01-04T21:19:42.624Z,21.60
2023-01-04T21:22:27.491Z,27.45
2023-01-04T21:25:12.765Z,29.90
2023-01-04T21:28:00.644Z,24.85
2023-01-04T21:30:46.632Z,28.98
2023-01-04T21:33:31.487Z,29.63
2023-01-04T21:36:19.682Z,27.85
2023-01-04T21:39:04.554Z,34.53
2023-01-04T21:41:53.285Z,35.10
2023-01-04T21:44:38.307Z,28.67
2023-01-04T21:47:23.613Z,28.50
2023-01-04T21:50:14.880Z,22.35
2023-01-04T21:53:02.167Z,30.73
2023-01-04T21:55:47.336Z,27.70
2023-01-04T21:58:33.187Z,22.00
2023-01-04T22:01:21.585Z,24.15
2023-01-04T22:04:07.465Z,28.17
2023-01-04T22:06:52.674Z,33.65
2023-01-04T22:09:38.466Z,25.67
2023-01-04T22:12:23.691Z,29.63
2023-01-04T22:15:09.221Z,30.13
2023-01-04T22:17:54.796Z,27.10
2023-01-04T22:20:40.196Z,19.83
2023-01-04T22:23:25.295Z,25.27
2023-01-04T22:26:10.983Z,28.23
2023-01-04T22:28:55.999Z,22.90
2023-01-04T22:31:41.226Z,28.08
2023-01-04T22:34:27.973Z,28.27
2023-01-04T22:37:13.009Z,31.05
2023-01-04T22:39:58.075Z,29.17
2023-01-04T22:42:43.277Z,37.08
2023-01-04T22:45:28.554Z,29.95
2023-01-04T22:48:14.172Z,29.92
2023-01-04T22:50:58.989Z,32.15
2023-01-04T22:53:44.993Z,31.30
2023-01-04T22:56:30.145Z,27.23
2023-01-04T22:59:15.317Z,24.88
2023-01-04T23:02:00.710Z,31.30
2023-01-04T23:04:45.898Z,28.33
2023-01-04T23:07:31.101Z,27.95
2023-01-04T23:10:16.149Z,31.05
2023-01-04T23:13:01.148Z,36.97
2023-01-04T23:15:46.107Z,36.70
2023-01-04T23:18:32.848Z,32.38
2023-01-04T23:21:18.260Z,32.83
2023-01-04T23:24:03.669Z,33.08
2023-01-04T23:26:48.926Z,30.70
2023-01-04T23:29:34.088Z,33.38
2023-01-04T23:32:19.293Z,32.60
2023-01-04T23:35:04.665Z,36.80
2023-01-04T23:37:49.904Z,31.23
2023-01-04T23:40:35.149Z,33.70
2023-01-04T23:43:20.216Z,34.92
2023-01-04T23:48:55.643Z,32.70
2023-01-04T23:51:42.465Z,34.63
2023-01-04T23:54:28.848Z,36.78
2023-01-04T23:57:13.903Z,29.02
2023-01-04T23:59:58.739Z,29.55
